createdAt,value
2023-02-08T00:01:09.146Z,74.52
2023-02-08T00:03:37.564Z,74.21
2023-02-08T00:06:06.038Z,74.64
2023-02-08T00:08:36.874Z,74.61
2023-02-08T00:11:05.992Z,74.65
2023-02-08T00:13:34.195Z,74.64
2023-02-08T00:16:02.406Z,74.77
2023-02-08T00:18:31.349Z,74.72
2023-02-08T00:20:59.872Z,74.53
2023-02-08T00:23:27.837Z,74.11
2023-02-08T00:25:55.722Z,74.33
2023-02-08T00:28:23.969Z,74.32
2023-02-08T00:30:53.640Z,74.59
2023-02-08T00:33:22.092Z,74.49
2023-02-08T00:35:50.155Z,74.49
2023-02-08T00:38:21.240Z,74.55
2023-02-08T00:40:50.250Z,74.59
2023-02-08T00:43:18.874Z,74.70
2023-02-08T00:45:47.149Z,74.51
2023-02-08T00:48:15.219Z,74.33
2023-02-08T00:50:45.281Z,74.24
2023-02-08T00:53:13.314Z,74.38
2023-02-08T00:55:42.579Z,74.62
2023-02-08T00:58:11.634Z,74.67
2023-02-08T01:00:40.414Z,74.71
2023-02-08T01:03:08.767Z,74.78
2023-02-08T01:05:42.038Z,74.86
2023-02-08T01:08:10.303Z,75.02
2023-02-08T01:10:38.709Z,75.07
2023-02-08T01:13:06.992Z,74.73
2023-02-08T01:15:35.280Z,75.15
2023-02-08T01:18:03.752Z,75.23
2023-02-08T01:20:34.171Z,75.57
2023-02-08T01:23:03.083Z,75.52
2023-02-08T01:25:33.213Z,75.76
2023-02-08T01:28:01.362Z,75.53
2023-02-08T01:30:29.744Z,75.61
2023-02-08T01:32:57.734Z,75.44
2023-02-08T01:35:29.153Z,75.22
2023-02-08T01:37:59.621Z,75.34
2023-02-08T01:40:27.863Z,75.65
2023-02-08T01:42:56.119Z,75.63
2023-02-08T01:45:26.436Z,75.94
2023-02-08T01:48:12.409Z,75.77
2023-02-08T01:50:48.961Z,76.01
2023-02-08T01:53:17.087Z,76.00
2023-02-08T01:55:49.092Z,76.14
2023-02-08T01:58:18.048Z,76.02
2023-02-08T02:00:46.780Z,75.81
2023-02-08T02:03:15.031Z,76.12
2023-02-08T02:05:50.314Z,76.50
2023-02-08T02:08:18.744Z,76.55
2023-02-08T02:10:49.589Z,76.69
2023-02-08T02:13:20.703Z,76.81
2023-02-08T02:15:49.087Z,76.91
2023-02-08T02:18:23.372Z,76.79
2023-02-08T02:21:13.507Z,76.70
2023-02-08T02:24:20.485Z,76.45
2023-02-08T02:27:06.993Z,76.59
2023-02-08T02:29:50.428Z,76.92
2023-02-08T02:32:24.572Z,77.23
2023-02-08T02:35:01.754Z,77.19
2023-02-08T02:37:29.878Z,76.92
2023-02-08T02:40:10.449Z,76.91
2023-02-08T02:43:26.139Z,76.93
2023-02-08T02:46:05.136Z,76.70
2023-02-08T02:48:59.484Z,76.28
2023-02-08T02:51:33.436Z,76.19
2023-02-08T02:54:14.748Z,76.26
2023-02-08T02:56:46.417Z,76.04
2023-02-08T02:59:16.003Z,76.27
2023-02-08T03:01:45.233Z,76.44
2023-02-08T03:04:14.977Z,76.67
2023-02-08T03:07:04.083Z,76.43
2023-02-08T03:09:35.432Z,76.34
2023-02-08T03:12:15.385Z,76.20
2023-02-08T03:15:22.336Z,76.64
2023-02-08T03:18:00.941Z,76.92
2023-02-08T03:20:40.570Z,76.91
2023-02-08T03:23:19.696Z,76.96
2023-02-08T03:25:51.357Z,76.86
2023-02-08T03:28:25.756Z,76.66
2023-02-08T03:31:01.924Z,76.51
2023-02-08T03:33:37.822Z,76.15
2023-02-08T03:36:09.098Z,76.28
2023-02-08T03:38:40.779Z,76.74
2023-02-08T03:41:12.194Z,76.80
2023-02-08T03:43:47.039Z,77.15
2023-02-08T03:46:19.131Z,77.01
2023-02-08T03:48:49.743Z,76.81
2023-02-08T03:51:18.018Z,76.42
2023-02-08T03:53:46.059Z,76.20
2023-02-08T03:56:21.792Z,76.18
2023-02-08T03:58:52.455Z,76.38
2023-02-08T04:01:24.699Z,76.70
2023-02-08T04:03:54.074Z,76.58
2023-02-08T04:06:22.014Z,76.79
2023-02-08T04:08:50.720Z,76.56
2023-02-08T04:11:20.000Z,76.65
2023-02-08T04:13:48.440Z,76.29
2023-02-08T04:16:16.455Z,76.21
2023-02-08T04:18:44.465Z,76.16
2023-02-08T04:21:12.684Z,76.18
2023-02-08T04:23:41.365Z,76.27
2023-02-08T04:26:09.739Z,76.36
2023-02-08T04:28:38.457Z,76.56
2023-02-08T04:31:06.809Z,76.44
2023-02-08T04:33:36.832Z,76.40
2023-02-08T04:36:05.594Z,76.20
2023-02-08T04:38:34.209Z,75.96
2023-02-08T04:41:02.527Z,76.10
2023-02-08T04:43:30.497Z,76.43
2023-02-08T04:45:58.568Z,76.37
2023-02-08T04:48:26.588Z,76.22
2023-02-08T04:50:58.145Z,76.51
2023-02-08T04:53:26.199Z,76.37
2023-02-08T04:55:54.286Z,76.36
2023-02-08T04:58:22.671Z,76.25
2023-02-08T05:00:50.829Z,76.03
2023-02-08T05:03:18.917Z,76.11
2023-02-08T05:05:47.120Z,76.18
2023-02-08T05:08:15.352Z,76.42
2023-02-08T05:10:46.524Z,76.72
2023-02-08T05:13:14.876Z,76.61
2023-02-08T05:15:43.817Z,76.55
2023-02-08T05:18:13.339Z,76.34
2023-02-08T05:20:41.548Z,76.18
2023-02-08T05:23:09.853Z,75.81
2023-02-08T05:25:39.431Z,76.23
2023-02-08T05:28:07.644Z,76.29
2023-02-08T05:30:36.595Z,76.25
2023-02-08T05:33:04.495Z,76.22
2023-02-08T05:35:32.657Z,76.20
2023-02-08T05:38:01.124Z,76.07
2023-02-08T05:40:29.652Z,76.02
2023-02-08T05:42:57.664Z,75.87
2023-02-08T05:45:25.712Z,75.71
2023-02-08T05:47:53.977Z,75.94
2023-02-08T05:50:22.296Z,76.04
2023-02-08T05:52:52.004Z,76.40
2023-02-08T05:55:19.983Z,76.30
2023-02-08T05:57:47.935Z,76.31
2023-02-08T06:00:17.186Z,76.40
2023-02-08T06:02:45.229Z,76.29
2023-02-08T06:05:13.680Z,76.02
2023-02-08T06:07:42.072Z,76.05
2023-02-08T06:10:11.411Z,76.06
2023-02-08T06:12:40.491Z,76.38
2023-02-08T06:15:09.940Z,76.53
2023-02-08T06:17:38.894Z,76.54
2023-02-08T06:20:07.651Z,76.30
2023-02-08T06:22:35.628Z,75.96
2023-02-08T06:25:03.863Z,75.93
2023-02-08T06:27:32.316Z,75.71
2023-02-08T06:30:00.343Z,75.47
2023-02-08T06:32:28.780Z,75.58
2023-02-08T06:34:57.112Z,75.68
2023-02-08T06:37:25.101Z,75.63
2023-02-08T06:39:53.157Z,75.13
2023-02-08T06:42:21.335Z,75.12
2023-02-08T06:44:55.176Z,74.85
2023-02-08T06:50:16.649Z,74.66
2023-02-08T06:52:44.896Z,74.52
2023-02-08T06:55:12.800Z,74.72
2023-02-08T06:57:42.454Z,74.26
2023-02-08T07:00:12.118Z,74.38
2023-02-08T07:02:40.339Z,74.63
2023-02-08T07:05:08.513Z,74.30
2023-02-08T07:07:37.014Z,73.70
2023-02-08T07:10:05.230Z,73.77
2023-02-08T07:12:36.816Z,73.41
2023-02-08T07:15:04.840Z,73.74
2023-02-08T07:17:34.094Z,73.69
2023-02-08T07:20:01.979Z,73.68
2023-02-08T07:22:30.198Z,73.32
2023-02-08T07:24:59.456Z,73.11
2023-02-08T07:27:27.276Z,72.85
2023-02-08T07:29:55.425Z,72.54
2023-02-08T07:32:23.334Z,72.27
2023-02-08T07:34:51.290Z,71.80
2023-02-08T07:37:19.158Z,71.55
2023-02-08T07:39:47.209Z,71.40
2023-02-08T07:42:15.175Z,71.36
2023-02-08T07:44:51.890Z,71.40
2023-02-08T07:47:19.820Z,71.31
2023-02-08T07:49:47.862Z,71.11
2023-02-08T07:52:16.169Z,70.65
2023-02-08T07:54:44.240Z,70.25
2023-02-08T07:57:12.154Z,70.05
2023-02-08T07:59:40.220Z,69.83
2023-02-08T08:02:08.899Z,69.15
2023-02-08T08:04:37.533Z,68.65
2023-02-08T08:07:06.285Z,68.32
2023-02-08T08:09:35.029Z,68.15
2023-02-08T08:12:03.270Z,67.13
2023-02-08T08:14:31.532Z,66.94
2023-02-08T08:16:59.437Z,66.91
2023-02-08T08:19:28.780Z,66.63
2023-02-08T08:21:57.066Z,66.61
2023-02-08T08:24:25.153Z,66.37
2023-02-08T08:26:53.940Z,65.43
2023-02-08T08:29:21.901Z,65.57
2023-02-08T08:31:49.841Z,65.81
2023-02-08T08:34:17.805Z,65.54
2023-02-08T08:36:46.116Z,65.34
2023-02-08T08:39:13.977Z,64.87
2023-02-08T08:41:41.930Z,63.82
2023-02-08T08:44:09.928Z,64.06
2023-02-08T08:46:38.213Z,63.05
2023-02-08T08:49:06.549Z,62.84
2023-02-08T08:51:35.610Z,62.15
2023-02-08T08:54:04.796Z,61.79
2023-02-08T08:56:32.872Z,61.29
2023-02-08T08:59:01.301Z,61.02
2023-02-08T09:01:29.556Z,60.79
2023-02-08T09:03:57.504Z,60.84
2023-02-08T09:06:25.657Z,59.98
2023-02-08T09:08:53.752Z,59.00
2023-02-08T09:11:21.670Z,59.40
2023-02-08T09:13:52.999Z,58.67
2023-02-08T09:16:24.868Z,58.42
2023-02-08T09:18:52.996Z,58.32
2023-02-08T09:21:22.568Z,57.83
2023-02-08T09:23:50.627Z,57.19
2023-02-08T09:26:19.469Z,56.61
2023-02-08T09:28:47.470Z,55.38
2023-02-08T09:31:19.632Z,54.84
2023-02-08T09:33:48.813Z,52.76
2023-02-08T09:36:17.176Z,52.20
2023-02-08T09:38:45.374Z,51.31
2023-02-08T09:41:38.751Z,49.47
2023-02-08T09:44:28.625Z,48.21
2023-02-08T09:47:03.633Z,46.84
2023-02-08T09:49:34.517Z,45.75
2023-02-08T09:52:04.491Z,45.10
2023-02-08T09:54:38.307Z,43.93
2023-02-08T09:57:13.777Z,42.50
2023-02-08T09:59:47.444Z,41.47
2023-02-08T10:02:32.576Z,40.75
2023-02-08T10:05:03.938Z,40.37
2023-02-08T10:07:33.091Z,38.51
2023-02-08T10:10:12.128Z,38.36
2023-02-08T10:12:48.001Z,37.77
2023-02-08T10:15:36.679Z,37.04
2023-02-08T10:18:26.396Z,36.47
2023-02-08T10:21:31.525Z,36.14
2023-02-08T10:24:11.898Z,34.76
2023-02-08T10:26:53.329Z,35.10
2023-02-08T10:29:31.704Z,35.07
2023-02-08T10:32:22.697Z,35.06
2023-02-08T10:35:03.351Z,34.57
2023-02-08T10:37:36.028Z,34.45
2023-02-08T10:40:44.154Z,33.94
2023-02-08T10:43:35.621Z,33.57
2023-02-08T10:46:26.623Z,32.97
2023-02-08T10:49:07.663Z,31.99
2023-02-08T10:51:36.381Z,32.30
2023-02-08T10:54:04.830Z,32.76
2023-02-08T10:56:52.988Z,31.55
2023-02-08T10:59:26.904Z,31.51
2023-02-08T11:01:54.976Z,31.45
2023-02-08T11:04:22.869Z,31.35
2023-02-08T11:06:51.923Z,30.29
2023-02-08T11:09:23.922Z,31.59
2023-02-08T11:11:56.432Z,30.67
2023-02-08T11:14:46.277Z,30.83
2023-02-08T11:17:27.730Z,30.49
2023-02-08T11:19:56.111Z,30.03
2023-02-08T11:22:26.824Z,30.29
2023-02-08T11:24:57.763Z,29.60
2023-02-08T11:27:28.686Z,29.71
2023-02-08T11:30:15.845Z,29.65
2023-02-08T11:32:48.672Z,29.21
2023-02-08T11:35:26.009Z,29.50
2023-02-08T11:37:55.477Z,29.66
2023-02-08T11:40:29.790Z,29.53
2023-02-08T11:42:57.877Z,29.70
2023-02-08T11:45:31.214Z,29.68
2023-02-08T11:48:01.706Z,29.34
2023-02-08T11:50:34.936Z,29.09
2023-02-08T11:53:06.790Z,29.01
2023-02-08T11:55:35.257Z,29.15
2023-02-08T11:58:04.754Z,28.93
2023-02-08T12:00:36.451Z,29.06
2023-02-08T12:03:15.085Z,29.01
2023-02-08T12:05:54.248Z,28.92
2023-02-08T12:09:00.680Z,29.09
2023-02-08T12:11:49.131Z,29.17
2023-02-08T12:14:42.375Z,29.34
2023-02-08T12:17:55.677Z,28.84
2023-02-08T12:20:45.449Z,29.16
2023-02-08T12:23:46.592Z,29.26
2023-02-08T12:26:25.895Z,29.34
2023-02-08T12:29:06.871Z,28.70
2023-02-08T12:31:42.884Z,28.39
2023-02-08T12:34:22.750Z,27.88
2023-02-08T12:37:22.088Z,28.70
2023-02-08T12:40:18.687Z,29.11
2023-02-08T12:43:15.432Z,29.31
2023-02-08T12:45:59.112Z,28.25
2023-02-08T12:48:35.581Z,28.95
2023-02-08T12:51:28.740Z,28.99
2023-02-08T12:54:30.902Z,28.60
2023-02-08T12:57:02.440Z,28.97
2023-02-08T12:59:56.544Z,27.90
2023-02-08T13:02:57.473Z,28.51
2023-02-08T13:05:28.745Z,29.42
2023-02-08T13:08:32.809Z,30.39
2023-02-08T13:11:18.857Z,30.25
2023-02-08T13:14:13.022Z,28.51
2023-02-08T13:16:44.172Z,28.64
2023-02-08T13:19:24.859Z,27.44
2023-02-08T13:21:53.639Z,27.55
2023-02-08T13:24:38.761Z,29.30
2023-02-08T13:27:08.250Z,30.67
2023-02-08T13:29:36.396Z,31.41
2023-02-08T13:32:29.798Z,32.63
2023-02-08T13:35:02.898Z,34.21
2023-02-08T13:37:32.426Z,35.11
2023-02-08T13:40:12.876Z,36.58
2023-02-08T13:42:43.169Z,38.14
2023-02-08T13:45:25.712Z,38.83
2023-02-08T13:48:02.471Z,40.18
2023-02-08T13:50:44.848Z,40.96
2023-02-08T13:53:14.880Z,40.95
2023-02-08T13:55:43.058Z,40.49
2023-02-08T13:58:14.137Z,40.54
2023-02-08T14:00:54.990Z,39.90
2023-02-08T14:03:27.898Z,37.44
2023-02-08T14:06:22.575Z,37.30
2023-02-08T14:08:57.510Z,37.72
2023-02-08T14:11:57.334Z,37.81
2023-02-08T14:14:26.738Z,39.45
2023-02-08T14:17:04.167Z,40.11
2023-02-08T14:19:33.890Z,41.35
2023-02-08T14:22:07.089Z,42.38
2023-02-08T14:24:49.829Z,42.80
2023-02-08T14:27:40.964Z,43.78
2023-02-08T14:30:17.929Z,44.67
2023-02-08T14:33:04.939Z,45.38
2023-02-08T14:35:34.332Z,45.32
2023-02-08T14:38:32.852Z,45.92
2023-02-08T14:41:02.029Z,47.04
2023-02-08T14:43:41.177Z,47.25
2023-02-08T14:46:54.976Z,48.49
2023-02-08T14:49:23.254Z,49.17
2023-02-08T14:51:56.873Z,49.47
2023-02-08T14:54:33.032Z,50.14
2023-02-08T14:57:04.156Z,50.06
2023-02-08T14:59:32.706Z,51.05
2023-02-08T15:02:11.392Z,51.89
2023-02-08T15:04:44.514Z,52.31
2023-02-08T15:07:16.578Z,53.18
2023-02-08T15:09:45.537Z,53.02
2023-02-08T15:12:30.450Z,52.87
2023-02-08T15:15:01.448Z,53.41
2023-02-08T15:17:34.122Z,54.16
2023-02-08T15:20:06.070Z,54.14
2023-02-08T15:22:40.344Z,54.81
2023-02-08T15:25:35.575Z,54.97
2023-02-08T15:28:22.302Z,55.88
2023-02-08T15:31:09.598Z,55.67
2023-02-08T15:33:43.705Z,56.57
2023-02-08T15:36:21.203Z,56.91
2023-02-08T15:38:49.337Z,56.72
2023-02-08T15:41:31.772Z,57.03
2023-02-08T15:44:20.595Z,57.78
2023-02-08T15:46:50.022Z,58.42
2023-02-08T15:49:22.200Z,58.22
2023-02-08T15:51:51.083Z,58.26
2023-02-08T15:54:19.116Z,58.80
2023-02-08T15:57:17.781Z,59.03
2023-02-08T15:59:46.063Z,59.52
2023-02-08T16:02:21.101Z,59.20
2023-02-08T16:04:49.132Z,59.18
2023-02-08T16:07:35.154Z,59.42
2023-02-08T16:10:04.603Z,59.81
2023-02-08T16:12:33.226Z,60.28
2023-02-08T16:15:02.854Z,60.58
2023-02-08T16:17:36.076Z,60.44
2023-02-08T16:20:31.944Z,60.46
2023-02-08T16:23:03.884Z,60.76
2023-02-08T16:25:49.243Z,60.86
2023-02-08T16:28:35.409Z,60.92
2023-02-08T16:31:04.410Z,60.99
2023-02-08T16:33:33.038Z,61.29
2023-02-08T16:36:03.776Z,61.64
2023-02-08T16:38:36.612Z,62.53
2023-02-08T16:41:12.299Z,62.35
2023-02-08T16:43:44.582Z,63.14
2023-02-08T16:46:19.853Z,62.94
2023-02-08T16:48:51.527Z,62.97
2023-02-08T16:51:22.217Z,63.39
2023-02-08T16:53:51.942Z,64.27
2023-02-08T16:56:20.128Z,64.70
2023-02-08T16:58:48.355Z,65.38
2023-02-08T17:01:45.245Z,65.57
2023-02-08T17:04:19.124Z,64.20
2023-02-08T17:06:47.043Z,63.40
2023-02-08T17:09:15.065Z,63.77
2023-02-08T17:11:43.008Z,64.07
2023-02-08T17:14:11.205Z,64.30
2023-02-08T17:16:40.032Z,64.20
2023-02-08T17:19:10.866Z,64.31
2023-02-08T17:21:39.075Z,64.40
2023-02-08T17:24:06.915Z,64.59
2023-02-08T17:26:38.919Z,64.91
2023-02-08T17:29:07.827Z,65.16
2023-02-08T17:31:36.079Z,65.17
2023-02-08T17:34:06.915Z,65.34
2023-02-08T17:36:36.535Z,65.59
2023-02-08T17:39:05.745Z,65.74
2023-02-08T17:41:34.563Z,65.91
2023-02-08T17:44:02.692Z,65.81
2023-02-08T17:46:31.124Z,66.41
2023-02-08T17:49:01.704Z,66.54
2023-02-08T17:51:33.008Z,66.67
2023-02-08T17:54:05.066Z,66.63
2023-02-08T17:56:36.726Z,66.70
2023-02-08T17:59:05.642Z,66.85
2023-02-08T18:01:34.095Z,66.82
2023-02-08T18:04:02.656Z,66.73
2023-02-08T18:06:31.328Z,66.80
2023-02-08T18:08:59.183Z,66.82
2023-02-08T18:11:27.272Z,67.07
2023-02-08T18:13:55.812Z,67.01
2023-02-08T18:16:26.484Z,67.10
2023-02-08T18:18:56.497Z,67.08
2023-02-08T18:21:26.179Z,67.34
2023-02-08T18:23:55.592Z,67.74
2023-02-08T18:26:24.230Z,67.65
2023-02-08T18:28:52.930Z,67.75
2023-02-08T18:31:21.239Z,67.71
2023-02-08T18:33:49.962Z,67.93
2023-02-08T18:36:19.110Z,68.19
2023-02-08T18:38:47.749Z,68.26
2023-02-08T18:41:23.905Z,68.49
2023-02-08T18:43:52.229Z,68.19
2023-02-08T18:46:21.484Z,68.13
2023-02-08T18:48:50.831Z,68.27
2023-02-08T18:51:19.941Z,68.21
2023-02-08T18:53:50.920Z,68.68
2023-02-08T18:56:24.275Z,68.79
2023-02-08T18:58:53.861Z,68.83
2023-02-08T19:01:23.156Z,69.03
2023-02-08T19:03:52.195Z,69.21
2023-02-08T19:08:25.316Z,69.06
2023-02-08T19:10:53.432Z,69.40
2023-02-08T19:13:21.396Z,69.08
2023-02-08T19:15:49.928Z,69.14
2023-02-08T19:18:17.911Z,69.25
2023-02-08T19:20:45.809Z,69.44
2023-02-08T19:23:13.692Z,69.43
2023-02-08T19:25:42.306Z,69.49
2023-02-08T19:28:10.861Z,69.44
2023-02-08T19:30:40.188Z,69.59
2023-02-08T19:33:08.743Z,69.75
2023-02-08T19:35:38.568Z,69.71
2023-02-08T19:38:06.701Z,69.86
2023-02-08T19:40:35.555Z,69.98
2023-02-08T19:43:04.299Z,69.46
2023-02-08T19:45:32.539Z,68.93
2023-02-08T19:48:00.445Z,68.62
2023-02-08T19:50:28.733Z,68.57
2023-02-08T19:52:57.334Z,68.43
2023-02-08T19:55:26.002Z,68.45
2023-02-08T19:57:54.374Z,68.83
2023-02-08T20:00:24.282Z,69.16
2023-02-08T20:02:52.855Z,69.20
2023-02-08T20:05:20.864Z,69.12
2023-02-08T20:07:49.561Z,69.25
2023-02-08T20:10:18.277Z,69.36
2023-02-08T20:12:46.394Z,68.85
2023-02-08T20:15:16.092Z,68.77
2023-02-08T20:17:46.119Z,69.09
2023-02-08T20:20:14.709Z,69.17
2023-02-08T20:22:43.114Z,68.93
2023-02-08T20:25:10.996Z,68.72
2023-02-08T20:27:39.225Z,68.75
2023-02-08T20:30:07.596Z,68.84
2023-02-08T20:32:35.887Z,68.87
2023-02-08T20:35:04.619Z,69.08
2023-02-08T20:37:33.757Z,69.56
2023-02-08T20:40:01.897Z,69.59
2023-02-08T20:42:30.339Z,69.67
2023-02-08T20:44:58.479Z,69.42
2023-02-08T20:47:28.536Z,69.50
2023-02-08T20:49:59.615Z,69.42
2023-02-08T20:52:29.583Z,69.51
2023-02-08T20:54:57.686Z,69.15
2023-02-08T20:57:25.767Z,68.94
2023-02-08T20:59:53.979Z,69.29
2023-02-08T21:02:22.576Z,69.21
2023-02-08T21:04:50.500Z,69.17
2023-02-08T21:07:18.514Z,69.09
2023-02-08T21:09:47.081Z,69.34
2023-02-08T21:12:14.979Z,68.97
2023-02-08T21:14:44.704Z,69.23
2023-02-08T21:17:17.788Z,69.15
2023-02-08T21:19:47.816Z,68.93
2023-02-08T21:22:17.196Z,69.29
2023-02-08T21:24:45.146Z,69.44
2023-02-08T21:27:13.526Z,69.39
2023-02-08T21:29:42.198Z,69.24
2023-02-08T21:32:10.323Z,69.28
2023-02-08T21:34:38.280Z,69.12
2023-02-08T21:37:06.209Z,69.10
2023-02-08T21:39:34.694Z,69.11
2023-02-08T21:42:03.145Z,68.92
2023-02-08T21:44:35.249Z,68.79
2023-02-08T21:47:03.275Z,68.79
2023-02-08T21:49:50.426Z,68.89
2023-02-08T21:52:37.008Z,68.71
2023-02-08T21:55:06.019Z,68.65
2023-02-08T21:57:39.944Z,68.86
2023-02-08T22:00:10.390Z,69.00
2023-02-08T22:02:41.338Z,69.17
2023-02-08T22:05:28.529Z,68.99
2023-02-08T22:08:00.048Z,69.07
2023-02-08T22:10:30.372Z,69.32
2023-02-08T22:12:58.972Z,69.02
2023-02-08T22:15:29.231Z,69.18
2023-02-08T22:17:59.089Z,69.23
2023-02-08T22:20:28.101Z,69.25
2023-02-08T22:22:56.418Z,69.29
2023-02-08T22:25:24.818Z,69.30
2023-02-08T22:27:53.355Z,69.36
2023-02-08T22:30:23.837Z,69.34
2023-02-08T22:32:53.397Z,69.37
2023-02-08T22:35:22.755Z,69.53
2023-02-08T22:37:50.974Z,69.53
2023-02-08T22:40:19.251Z,69.33
2023-02-08T22:42:47.585Z,69.14
2023-02-08T22:45:15.480Z,68.95
2023-02-08T22:47:44.687Z,69.04
2023-02-08T22:50:14.375Z,69.30
2023-02-08T22:52:42.445Z,69.36
2023-02-08T22:55:12.381Z,69.31
2023-02-08T22:57:43.630Z,69.28
2023-02-08T23:00:14.394Z,69.23
2023-02-08T23:02:43.125Z,69.12
2023-02-08T23:05:11.319Z,69.16
2023-02-08T23:07:40.347Z,69.15
2023-02-08T23:10:09.643Z,69.47
2023-02-08T23:12:38.163Z,69.55
2023-02-08T23:15:06.749Z,69.04
2023-02-08T23:17:36.528Z,69.06
2023-02-08T23:20:04.625Z,69.03
2023-02-08T23:22:36.691Z,69.02
2023-02-08T23:25:05.152Z,69.09
2023-02-08T23:27:33.911Z,68.94
2023-02-08T23:30:02.082Z,68.83
2023-02-08T23:32:30.340Z,68.45
2023-02-08T23:34:58.410Z,68.31
2023-02-08T23:37:26.994Z,68.22
2023-02-08T23:39:55.278Z,68.39
2023-02-08T23:42:26.881Z,68.32
2023-02-08T23:44:56.132Z,68.55
2023-02-08T23:47:24.518Z,68.40
2023-02-08T23:49:52.700Z,68.53
2023-02-08T23:52:21.062Z,68.48
2023-02-08T23:54:49.560Z,68.50
2023-02-08T23:57:17.857Z,68.84
2023-02-08T23:59:45.979Z,68.55
